createdAt,value
2018-11-06T00:04:33.113Z,20.30
2018-11-06T00:09:26.425Z,20.52
2018-11-06T00:14:19.698Z,21.65
2018-11-06T00:19:12.948Z,21.12
2018-11-06T00:24:06.202Z,21.15
2018-11-06T00:28:59.446Z,20.00
2018-11-06T00:33:52.695Z,19.52
2018-11-06T00:38:45.924Z,19.60
2018-11-06T00:43:39.200Z,20.08
2018-11-06T00:48:32.448Z,20.32
2018-11-06T00:53:25.722Z,20.40
2018-11-06T00:58:19.000Z,20.45
2018-11-06T01:03:12.283Z,20.10
2018-11-06T01:08:05.705Z,19.15
2018-11-06T01:12:58.926Z,19.60
2018-11-06T01:17:52.190Z,20.23
2018-11-06T01:22:47.093Z,19.52
2018-11-06T01:27:40.417Z,18.98
2018-11-06T01:32:33.652Z,20.25
2018-11-06T01:37:26.904Z,18.90
2018-11-06T01:42:20.161Z,20.62
2018-11-06T01:47:13.432Z,21.05
2018-11-06T01:52:06.732Z,19.40
2018-11-06T01:57:00.047Z,20.43
2018-11-06T02:01:53.306Z,20.05
2018-11-06T02:06:47.683Z,19.90
2018-11-06T02:11:40.960Z,20.10
2018-11-06T02:16:34.231Z,20.82
2018-11-06T02:21:28.097Z,19.65
2018-11-06T02:26:21.419Z,19.57
2018-11-06T02:31:14.955Z,19.42
2018-11-06T02:36:08.238Z,18.77
2018-11-06T02:41:01.507Z,18.90
2018-11-06T02:45:54.808Z,20.05
2018-11-06T02:50:48.065Z,20.12
2018-11-06T02:55:41.320Z,20.65
2018-11-06T03:00:34.577Z,19.95
2018-11-06T03:05:27.876Z,21.42
2018-11-06T03:10:21.139Z,20.82
2018-11-06T03:15:15.284Z,19.62
2018-11-06T03:20:09.645Z,18.35
2018-11-06T03:25:03.852Z,17.82
2018-11-06T03:29:57.126Z,18.65
2018-11-06T03:34:50.417Z,17.92
2018-11-06T03:39:43.658Z,17.98
2018-11-06T03:44:36.934Z,18.25
2018-11-06T03:49:30.525Z,17.67
2018-11-06T03:54:23.807Z,17.95
2018-11-06T03:59:17.122Z,18.35
2018-11-06T04:04:10.424Z,17.80
2018-11-06T04:09:06.347Z,18.85
2018-11-06T04:13:59.589Z,16.93
2018-11-06T04:18:52.859Z,17.60
2018-11-06T04:23:46.147Z,17.67
2018-11-06T04:28:39.427Z,17.40
2018-11-06T04:33:32.670Z,16.00
2018-11-06T04:38:25.903Z,17.07
2018-11-06T04:43:19.163Z,17.00
2018-11-06T04:48:12.422Z,17.30
2018-11-06T04:53:05.724Z,17.45
2018-11-06T04:57:59.001Z,18.05
2018-11-06T05:02:52.828Z,17.67
2018-11-06T05:07:47.341Z,18.12
2018-11-06T05:12:40.578Z,18.15
2018-11-06T05:17:33.836Z,16.32
2018-11-06T05:22:27.120Z,17.25
2018-11-06T05:27:20.426Z,18.12
2018-11-06T05:32:13.628Z,17.48
2018-11-06T05:37:06.900Z,16.80
2018-11-06T05:42:00.199Z,17.62
2018-11-06T05:46:53.430Z,16.93
2018-11-06T05:51:46.677Z,17.70
2018-11-06T05:56:39.977Z,17.65
2018-11-06T06:01:33.295Z,16.85
2018-11-06T06:06:26.563Z,16.70
2018-11-06T06:11:19.876Z,16.80
2018-11-06T06:16:13.125Z,15.90
2018-11-06T06:21:06.479Z,16.27
2018-11-06T06:25:59.915Z,15.38
2018-11-06T06:30:53.151Z,16.00
2018-11-06T06:35:47.045Z,16.12
2018-11-06T06:40:40.312Z,15.95
2018-11-06T06:45:33.626Z,16.50
2018-11-06T06:50:26.891Z,16.37
2018-11-06T06:55:20.219Z,16.20
2018-11-06T07:00:15.440Z,15.50
2018-11-06T07:05:10.924Z,15.68
2018-11-06T07:10:05.198Z,15.40
2018-11-06T07:14:58.472Z,15.00
2018-11-06T07:19:52.263Z,15.10
2018-11-06T07:25:48.770Z,14.58
2018-11-06T07:30:42.071Z,13.88
2018-11-06T07:35:35.445Z,14.38
2018-11-06T07:40:28.646Z,14.85
2018-11-06T07:45:22.147Z,13.83
2018-11-06T07:50:15.539Z,14.70
2018-11-06T07:55:11.799Z,14.75
2018-11-06T08:00:17.064Z,15.43
2018-11-06T08:05:10.449Z,15.10
2018-11-06T08:10:04.311Z,15.08
2018-11-06T08:14:57.572Z,14.53
2018-11-06T08:19:50.866Z,14.98
2018-11-06T08:24:44.115Z,14.80
2018-11-06T08:29:37.362Z,15.50
2018-11-06T08:34:31.727Z,14.25
2018-11-06T08:39:24.977Z,15.65
2018-11-06T08:44:18.615Z,15.53
2018-11-06T08:49:12.323Z,14.75
2018-11-06T08:54:06.461Z,14.10
2018-11-06T08:58:59.790Z,13.80
2018-11-06T09:03:53.341Z,13.58
2018-11-06T09:08:47.047Z,14.75
2018-11-06T09:13:41.469Z,14.03
2018-11-06T09:18:34.854Z,14.43
2018-11-06T09:23:28.504Z,14.03
2018-11-06T09:28:21.908Z,13.88
2018-11-06T09:33:15.205Z,13.45
2018-11-06T09:38:08.860Z,14.65
2018-11-06T09:43:02.508Z,13.93
2018-11-06T09:47:55.853Z,13.80
2018-11-06T09:52:49.127Z,13.72
2018-11-06T09:57:42.695Z,12.85
2018-11-06T10:02:36.402Z,13.50
2018-11-06T10:07:29.867Z,13.38
2018-11-06T10:12:23.298Z,13.32
2018-11-06T10:17:16.910Z,13.15
2018-11-06T10:22:10.214Z,13.18
2018-11-06T10:27:03.980Z,12.13
2018-11-06T10:31:57.371Z,12.73
2018-11-06T10:36:50.715Z,12.10
2018-11-06T10:41:45.008Z,11.93
2018-11-06T10:46:38.483Z,12.53
2018-11-06T10:51:32.088Z,11.88
2018-11-06T10:56:25.355Z,12.65
2018-11-06T11:01:24.543Z,11.75
2018-11-06T11:06:17.956Z,11.53
2018-11-06T11:11:11.469Z,10.78
2018-11-06T11:16:04.861Z,11.53
2018-11-06T11:20:58.344Z,12.68
2018-11-06T11:25:51.861Z,12.43
2018-11-06T11:30:45.167Z,12.47
2018-11-06T11:35:38.985Z,11.60
2018-11-06T11:40:32.468Z,11.53
2018-11-06T11:45:25.745Z,11.12
2018-11-06T11:50:19.143Z,10.75
2018-11-06T11:55:12.733Z,10.63
2018-11-06T12:00:08.914Z,11.50
2018-11-06T12:05:02.337Z,10.28
2018-11-06T12:09:55.712Z,10.30
2018-11-06T12:14:49.131Z,10.15
2018-11-06T12:19:42.754Z,8.83
2018-11-06T12:24:36.180Z,9.13
2018-11-06T12:29:29.569Z,9.63
2018-11-06T12:34:23.103Z,8.93
2018-11-06T12:39:16.557Z,8.08
2018-11-06T12:44:09.947Z,8.55
2018-11-06T12:49:03.871Z,8.25
2018-11-06T12:53:57.239Z,7.80
2018-11-06T12:58:50.580Z,8.40
2018-11-06T13:03:43.934Z,7.45
2018-11-06T13:08:37.469Z,7.15
2018-11-06T13:13:30.751Z,7.40
2018-11-06T13:18:24.020Z,7.17
2018-11-06T13:23:17.570Z,7.40
2018-11-06T13:28:11.181Z,7.10
2018-11-06T13:33:04.680Z,7.45
2018-11-06T13:37:58.462Z,6.72
2018-11-06T13:42:52.145Z,6.95
2018-11-06T13:47:45.380Z,7.25
2018-11-06T13:52:38.887Z,6.47
2018-11-06T13:57:32.584Z,6.47
2018-11-06T14:02:26.467Z,6.95
2018-11-06T14:07:19.908Z,6.72
2018-11-06T14:12:13.925Z,6.65
2018-11-06T14:17:07.691Z,6.65
2018-11-06T14:22:01.294Z,6.78
2018-11-06T14:26:54.800Z,6.87
2018-11-06T14:31:48.549Z,7.37
2018-11-06T14:36:42.393Z,7.12
2018-11-06T14:41:36.007Z,7.47
2018-11-06T14:46:29.667Z,7.67
2018-11-06T14:51:23.499Z,7.55
2018-11-06T14:56:17.207Z,7.78
2018-11-06T15:01:10.560Z,8.13
2018-11-06T15:06:04.413Z,8.30
2018-11-06T15:10:58.054Z,7.55
2018-11-06T15:15:51.592Z,8.65
2018-11-06T15:20:45.030Z,8.35
2018-11-06T15:25:38.264Z,7.85
2018-11-06T15:30:31.662Z,9.30
2018-11-06T15:35:25.497Z,8.85
2018-11-06T15:40:19.911Z,9.25
2018-11-06T15:45:15.865Z,9.33
2018-11-06T15:50:11.959Z,9.05
2018-11-06T15:55:05.570Z,8.33
2018-11-06T15:59:59.001Z,8.75
2018-11-06T16:04:53.019Z,8.38
2018-11-06T16:09:46.475Z,8.48
2018-11-06T16:14:39.729Z,8.78
2018-11-06T16:19:33.100Z,8.20
2018-11-06T16:24:26.473Z,8.55
2018-11-06T16:29:20.796Z,9.38
2018-11-06T16:34:14.112Z,9.40
2018-11-06T16:39:10.538Z,9.23
2018-11-06T16:44:04.222Z,9.75
2018-11-06T16:48:57.911Z,9.55
2018-11-06T16:53:51.812Z,8.08
2018-11-06T16:58:45.181Z,9.23
2018-11-06T17:03:38.732Z,8.20
2018-11-06T17:08:32.320Z,8.53
2018-11-06T17:13:26.363Z,8.65
2018-11-06T17:18:19.791Z,9.00
2018-11-06T17:23:13.196Z,8.80
2018-11-06T17:28:06.983Z,8.95
2018-11-06T17:33:00.289Z,9.05
2018-11-06T17:37:54.761Z,8.88
2018-11-06T17:42:48.218Z,9.30
2018-11-06T17:47:41.981Z,9.08
2018-11-06T17:52:35.282Z,9.73
2018-11-06T17:57:28.696Z,9.70
2018-11-06T18:02:22.198Z,9.70
2018-11-06T18:07:15.456Z,9.80
2018-11-06T18:12:08.903Z,10.08
2018-11-06T18:17:02.657Z,9.18
2018-11-06T18:21:55.897Z,10.95
2018-11-06T18:26:49.240Z,10.18
2018-11-06T18:31:42.774Z,9.65
2018-11-06T18:36:36.218Z,10.18
2018-11-06T18:41:29.532Z,10.40
2018-11-06T18:46:24.483Z,9.73
2018-11-06T18:51:17.847Z,10.68
2018-11-06T18:56:11.159Z,10.50
2018-11-06T19:01:04.507Z,10.28
2018-11-06T19:05:57.815Z,10.53
2018-11-06T19:10:51.272Z,10.93
2018-11-06T19:15:44.509Z,11.15
2018-11-06T19:20:37.783Z,11.30
2018-11-06T19:25:31.143Z,11.28
2018-11-06T19:30:24.464Z,10.53
2018-11-06T19:35:17.717Z,11.18
2018-11-06T19:40:12.723Z,11.20
2018-11-06T19:45:07.573Z,11.00
2018-11-06T19:50:00.985Z,11.57
2018-11-06T19:54:54.247Z,10.63
2018-11-06T19:59:47.545Z,11.00
2018-11-06T20:04:40.940Z,10.13
2018-11-06T20:09:34.232Z,10.20
2018-11-06T20:14:27.526Z,10.05
2018-11-06T20:19:27.426Z,10.10
2018-11-06T20:24:20.746Z,9.83
2018-11-06T20:29:14.118Z,10.45
2018-11-06T20:34:07.493Z,10.65
2018-11-06T20:39:00.930Z,10.08
2018-11-06T20:43:54.321Z,11.00
2018-11-06T20:48:51.404Z,11.20
2018-11-06T20:53:45.045Z,11.05
2018-11-06T20:58:38.805Z,10.78
2018-11-06T21:03:32.794Z,10.53
2018-11-06T21:08:26.159Z,11.03
2018-11-06T21:13:20.245Z,11.12
2018-11-06T21:18:13.613Z,11.08
2018-11-06T21:23:07.612Z,11.00
2018-11-06T21:28:01.130Z,10.85
2018-11-06T21:32:54.397Z,11.75
2018-11-06T21:37:47.714Z,11.68
2018-11-06T21:42:41.651Z,11.50
2018-11-06T21:47:34.938Z,11.53
2018-11-06T21:52:28.215Z,11.12
2018-11-06T21:57:21.554Z,11.33
2018-11-06T22:02:14.843Z,11.05
2018-11-06T22:07:08.128Z,10.38
2018-11-06T22:12:01.515Z,10.13
2018-11-06T22:16:54.723Z,10.58
2018-11-06T22:21:48.934Z,10.90
2018-11-06T22:26:42.241Z,10.65
2018-11-06T22:31:36.402Z,11.60
2018-11-06T22:36:29.591Z,11.48
2018-11-06T22:41:22.952Z,11.10
2018-11-06T22:46:17.433Z,10.65
2018-11-06T22:51:10.669Z,10.95
2018-11-06T22:56:05.873Z,10.58
2018-11-06T23:01:04.953Z,10.20
2018-11-06T23:05:58.342Z,9.13
2018-11-06T23:10:51.682Z,10.48
2018-11-06T23:15:46.963Z,10.20
2018-11-06T23:20:40.248Z,10.60
2018-11-06T23:25:33.528Z,10.32
2018-11-06T23:30:26.871Z,10.32
2018-11-06T23:35:20.133Z,9.83
2018-11-06T23:40:13.397Z,10.10
2018-11-06T23:45:07.561Z,9.93
2018-11-06T23:50:00.846Z,9.60
2018-11-06T23:54:54.114Z,9.65
2018-11-06T23:59:47.408Z,10.23
